Time;durP1;ratioP1;P1;durP2;ratioP2;P2;SDS_P1;SDS_P2;PMS_P1;PMS_P2;Temp;Humidity;BMP_temperature;BMP_pressure;BME280_temperature;BME280_humidity;BME280_pressure;Samples;Min_cycle;Max_cycle;Signal;HPM_P1;HPM_P2
2022/03/30 00:01:14;;;;;;;63.58;35.15;;;8.80;99.90;;;;;;4977559;28;20142;-55
2022/03/30 00:03:41;;;;;;;68.03;32.28;;;8.80;99.90;;;;;;4967969;28;20054;-56
2022/03/30 00:06:08;;;;;;;56.03;30.98;;;8.80;99.90;;;;;;4978715;28;20045;-56
2022/03/30 00:08:35;;;;;;;63.25;32.80;;;8.80;99.90;;;;;;4982797;28;20120;-54
2022/03/30 00:11:02;;;;;;;64.93;31.40;;;8.80;99.90;;;;;;4980076;28;20129;-57
2022/03/30 00:13:29;;;;;;;60.55;32.67;;;8.80;99.90;;;;;;4982137;28;20121;-57
2022/03/30 00:15:55;;;;;;;59.28;32.97;;;8.80;99.90;;;;;;4979467;28;20352;-55
2022/03/30 00:18:22;;;;;;;59.58;32.72;;;8.90;99.90;;;;;;4973318;28;20126;-55
2022/03/30 00:20:49;;;;;;;66.80;34.42;;;8.90;99.90;;;;;;4977630;28;20133;-56
2022/03/30 00:23:16;;;;;;;68.75;35.15;;;8.80;99.90;;;;;;4984789;28;20042;-55
2022/03/30 00:25:42;;;;;;;67.60;35.05;;;8.80;99.90;;;;;;4974842;28;20137;-56
2022/03/30 00:28:09;;;;;;;69.55;36.33;;;8.80;99.90;;;;;;4973277;28;20043;-55
2022/03/30 00:30:36;;;;;;;72.20;37.05;;;8.80;99.90;;;;;;4977578;28;20132;-57
2022/03/30 00:33:03;;;;;;;66.47;35.72;;;8.80;99.90;;;;;;4963911;28;20043;-53
2022/03/30 00:35:31;;;;;;;70.53;35.75;;;8.80;99.90;;;;;;4979824;28;20042;-55
2022/03/30 00:37:58;;;;;;;73.72;37.53;;;8.80;99.90;;;;;;4970585;28;20050;-52
2022/03/30 00:40:25;;;;;;;80.05;37.92;;;8.80;99.90;;;;;;4960503;28;20473;-56
2022/03/30 00:42:52;;;;;;;69.03;36.58;;;8.80;99.90;;;;;;4977650;28;20074;-56
2022/03/30 00:45:21;;;;;;;78.47;35.50;;;8.80;99.90;;;;;;4975848;28;20096;-56
2022/03/30 00:47:48;;;;;;;73.00;39.55;;;8.80;99.90;;;;;;4976483;28;20337;-58
2022/03/30 00:50:16;;;;;;;74.07;38.15;;;8.80;99.90;;;;;;4967568;28;20510;-54
2022/03/30 00:52:44;;;;;;;64.63;34.95;;;8.70;99.90;;;;;;4976707;28;20133;-54
2022/03/30 00:55:13;;;;;;;77.10;38.72;;;8.70;99.90;;;;;;4972008;28;20050;-55
2022/03/30 00:57:41;;;;;;;74.45;38.60;;;8.70;99.90;;;;;;4962368;28;20140;-55
2022/03/30 01:00:09;;;;;;;76.10;39.28;;;8.70;99.90;;;;;;4984154;28;20089;-55
2022/03/30 01:02:39;;;;;;;78.53;37.95;;;8.70;99.90;;;;;;4957763;28;20101;-55
2022/03/30 01:05:07;;;;;;;82.43;39.47;;;8.60;99.90;;;;;;4960372;28;20050;-52
2022/03/30 01:07:33;;;;;;;73.40;37.40;;;8.70;99.90;;;;;;4976680;28;20178;-56
2022/03/30 01:10:04;;;;;;;76.72;38.80;;;8.70;99.90;;;;;;4980836;28;20142;-52
2022/03/30 01:12:34;;;;;;;75.95;39.53;;;8.70;99.90;;;;;;4975943;28;20509;-53
2022/03/30 01:15:00;;;;;;;72.15;37.45;;;8.70;99.90;;;;;;4980627;28;20104;-55
2022/03/30 01:17:27;;;;;;;73.20;39.28;;;8.70;99.90;;;;;;4977560;28;20073;-56
2022/03/30 01:19:54;;;;;;;69.13;36.55;;;8.70;99.90;;;;;;4632464;28;10000590;-57
2022/03/30 01:22:21;;;;;;;71.68;36.60;;;8.70;99.90;;;;;;4975338;28;20065;-54
2022/03/30 01:24:47;;;;;;;82.38;38.35;;;8.70;99.90;;;;;;4975570;28;20061;-56
2022/03/30 01:27:14;;;;;;;78.60;39.40;;;8.70;99.90;;;;;;4978430;28;20145;-58
2022/03/30 01:32:27;;;;;;;69.82;35.33;;;8.60;99.90;;;;;;4977376;28;20145;-55
2022/03/30 01:35:01;;;;;;;70.90;36.80;;;8.60;99.90;;;;;;4964579;28;20409;-54
2022/03/30 01:37:28;;;;;;;70.82;35.75;;;8.50;99.90;;;;;;4960682;28;20394;-56
2022/03/30 01:39:56;;;;;;;61.13;34.53;;;8.50;99.90;;;;;;4985066;28;20054;-54
2022/03/30 01:42:23;;;;;;;65.43;33.83;;;8.60;99.90;;;;;;4983668;28;20070;-56
2022/03/30 01:44:50;;;;;;;65.32;36.28;;;8.60;99.90;;;;;;4985318;28;20137;-53
2022/03/30 01:47:17;;;;;;;75.78;37.38;;;8.50;99.90;;;;;;4986158;28;20141;-53
2022/03/30 01:49:44;;;;;;;67.03;37.25;;;8.50;99.90;;;;;;4984134;28;20060;-55
2022/03/30 01:52:11;;;;;;;70.40;36.17;;;8.60;99.90;;;;;;4978978;28;20577;-55
2022/03/30 01:54:39;;;;;;;64.40;34.47;;;8.50;99.90;;;;;;4979953;28;20129;-54
2022/03/30 01:57:06;;;;;;;73.00;36.05;;;8.50;99.90;;;;;;4965011;28;20141;-56
2022/03/30 01:59:33;;;;;;;64.85;34.78;;;8.50;99.90;;;;;;4981227;28;20596;-56
2022/03/30 02:02:02;;;;;;;65.95;34.30;;;8.50;99.90;;;;;;4987469;28;20054;-56
2022/03/30 02:04:29;;;;;;;67.22;36.15;;;8.40;99.90;;;;;;4981287;28;20512;-56
2022/03/30 02:06:56;;;;;;;63.72;34.08;;;8.50;99.90;;;;;;4983015;28;20039;-54
2022/03/30 02:09:23;;;;;;;67.85;32.85;;;8.50;99.90;;;;;;4981171;28;20096;-56
2022/03/30 02:11:50;;;;;;;70.07;35.25;;;8.50;99.90;;;;;;4949405;28;20100;-55
2022/03/30 02:14:17;;;;;;;69.13;34.90;;;8.50;99.90;;;;;;4949752;29;20112;-56
2022/03/30 02:16:44;;;;;;;62.22;33.30;;;8.40;99.90;;;;;;4941904;29;20415;-55
2022/03/30 02:19:11;;;;;;;59.08;33.03;;;8.40;99.90;;;;;;4944629;29;20054;-56
2022/03/30 02:21:38;;;;;;;59.38;33.67;;;8.50;99.90;;;;;;4942159;28;20531;-57
2022/03/30 02:24:06;;;;;;;70.35;34.00;;;8.40;99.90;;;;;;4960340;28;20070;-56
2022/03/30 02:26:33;;;;;;;61.83;34.60;;;8.40;99.90;;;;;;4944884;28;20494;-55
2022/03/30 02:29:00;;;;;;;65.45;33.00;;;8.40;99.90;;;;;;4941723;29;20047;-56
2022/03/30 02:31:26;;;;;;;69.45;33.83;;;8.40;99.90;;;;;;4943013;29;20043;-56
2022/03/30 02:33:53;;;;;;;65.35;33.08;;;8.40;99.90;;;;;;4944458;28;20459;-56
2022/03/30 02:36:20;;;;;;;66.78;32.65;;;8.30;99.90;;;;;;4940113;29;20131;-56
2022/03/30 02:38:47;;;;;;;68.65;36.45;;;8.30;99.90;;;;;;4941600;29;20547;-54
2022/03/30 02:41:13;;;;;;;66.88;33.05;;;8.40;99.90;;;;;;4942600;29;20134;-54
2022/03/30 02:43:40;;;;;;;65.18;35.05;;;8.30;99.90;;;;;;4938923;29;20094;-52
2022/03/30 02:46:07;;;;;;;68.20;34.40;;;8.30;99.90;;;;;;4948466;29;20082;-56
2022/03/30 02:48:35;;;;;;;66.85;35.92;;;8.30;99.90;;;;;;4941196;29;20507;-55
2022/03/30 02:51:04;;;;;;;63.20;35.30;;;8.30;99.90;;;;;;4937343;29;20044;-55
2022/03/30 02:53:31;;;;;;;74.88;32.40;;;8.30;99.90;;;;;;4947551;28;20411;-55
2022/03/30 02:55:58;;;;;;;67.60;35.03;;;8.30;99.90;;;;;;4943143;28;20048;-54
2022/03/30 02:58:25;;;;;;;67.70;35.03;;;8.30;99.90;;;;;;4946378;28;20142;-55
2022/03/30 03:00:53;;;;;;;63.15;34.72;;;8.40;99.90;;;;;;4944261;29;20093;-55
2022/03/30 03:03:20;;;;;;;76.35;37.35;;;8.40;99.90;;;;;;4946061;28;20043;-55
2022/03/30 03:05:47;;;;;;;56.08;32.85;;;8.30;99.90;;;;;;4944170;29;20055;-55
2022/03/30 03:08:14;;;;;;;71.82;33.10;;;8.40;99.90;;;;;;4947462;28;20118;-51
2022/03/30 03:10:42;;;;;;;60.92;33.65;;;8.40;99.90;;;;;;4942521;28;20091;-57
2022/03/30 03:13:11;;;;;;;63.88;32.75;;;8.30;99.90;;;;;;4945711;28;20138;-51
2022/03/30 03:15:37;;;;;;;61.08;33.80;;;8.30;99.90;;;;;;4981322;28;20053;-52
2022/03/30 03:18:05;;;;;;;79.53;38.42;;;8.30;99.90;;;;;;4961700;28;20050;-52
2022/03/30 03:20:32;;;;;;;58.80;32.78;;;8.30;99.90;;;;;;4978967;28;20082;-53
2022/03/30 03:23:02;;;;;;;68.90;33.35;;;8.20;99.90;;;;;;4968005;28;20070;-54
2022/03/30 03:25:31;;;;;;;67.07;31.30;;;8.30;99.90;;;;;;4963662;28;20105;-57
2022/03/30 03:27:59;;;;;;;73.90;34.85;;;8.30;99.90;;;;;;4983518;28;20108;-52
2022/03/30 03:30:26;;;;;;;76.95;34.90;;;8.30;99.90;;;;;;4987874;28;20181;-55
2022/03/30 03:32:53;;;;;;;64.78;32.90;;;8.30;99.90;;;;;;4976416;28;20453;-53
2022/03/30 03:35:20;;;;;;;62.65;32.60;;;8.20;99.90;;;;;;4985523;28;20085;-54
2022/03/30 03:37:47;;;;;;;62.97;34.30;;;8.20;99.90;;;;;;4978889;28;20071;-51
2022/03/30 03:40:14;;;;;;;60.47;29.90;;;8.30;99.90;;;;;;4978605;28;20054;-54
2022/03/30 03:42:41;;;;;;;62.88;32.28;;;8.20;99.90;;;;;;4978630;28;20105;-53
2022/03/30 03:45:07;;;;;;;66.78;34.25;;;8.30;99.90;;;;;;4975979;28;20046;-53
2022/03/30 03:47:34;;;;;;;64.25;32.25;;;8.30;99.90;;;;;;4978698;28;20073;-54
2022/03/30 03:50:02;;;;;;;58.70;29.05;;;8.30;99.90;;;;;;4976614;28;20541;-55
2022/03/30 03:52:29;;;;;;;59.45;30.05;;;8.30;99.90;;;;;;4978596;28;20042;-60
2022/03/30 03:54:55;;;;;;;53.22;29.15;;;8.30;99.90;;;;;;4979108;28;20552;-52
2022/03/30 03:57:22;;;;;;;64.13;30.48;;;8.30;99.90;;;;;;4984377;28;20077;-53
2022/03/30 03:59:49;;;;;;;57.42;31.98;;;8.30;99.90;;;;;;4972468;28;20149;-53
2022/03/30 04:02:16;;;;;;;60.70;29.42;;;8.30;99.90;;;;;;4960381;28;20082;-51
2022/03/30 04:04:44;;;;;;;64.07;32.05;;;8.30;99.90;;;;;;4979804;28;20486;-51
2022/03/30 04:07:11;;;;;;;57.88;30.27;;;8.20;99.90;;;;;;4984938;28;20455;-54
2022/03/30 04:09:37;;;;;;;63.65;30.05;;;8.20;99.90;;;;;;4961467;28;20519;-51
2022/03/30 04:12:05;;;;;;;52.85;28.98;;;8.20;99.90;;;;;;4978411;28;20506;-55
2022/03/30 04:14:32;;;;;;;53.92;29.08;;;8.20;99.90;;;;;;4981377;28;20094;-55
2022/03/30 04:16:58;;;;;;;59.13;29.40;;;8.20;99.90;;;;;;4977213;28;20089;-54
2022/03/30 04:19:25;;;;;;;65.68;32.28;;;8.30;99.90;;;;;;4979260;28;20750;-55
2022/03/30 04:21:52;;;;;;;64.82;29.50;;;8.20;99.90;;;;;;4966856;28;20112;-54
2022/03/30 04:24:19;;;;;;;60.38;29.27;;;8.20;99.90;;;;;;4975712;28;20108;-55
2022/03/30 04:26:46;;;;;;;61.67;27.92;;;8.20;99.90;;;;;;4980280;28;20076;-55
2022/03/30 04:29:12;;;;;;;51.35;28.70;;;8.20;99.90;;;;;;4973811;28;20046;-55
2022/03/30 04:31:39;;;;;;;59.65;28.75;;;8.30;99.90;;;;;;4977670;28;20145;-53
2022/03/30 04:34:06;;;;;;;54.40;29.13;;;8.30;99.90;;;;;;4961975;28;20050;-55
2022/03/30 04:36:33;;;;;;;50.08;28.67;;;8.30;99.90;;;;;;4978845;28;20055;-53
2022/03/30 04:39:00;;;;;;;57.13;31.77;;;8.30;99.90;;;;;;4979505;28;20100;-55
2022/03/30 04:41:26;;;;;;;59.13;27.73;;;8.30;99.90;;;;;;4980852;28;20043;-54
2022/03/30 04:43:57;;;;;;;54.60;28.27;;;8.30;99.90;;;;;;4977499;28;20125;-55
2022/03/30 04:46:23;;;;;;;59.30;30.98;;;8.30;99.90;;;;;;4982284;28;20473;-54
2022/03/30 04:48:50;;;;;;;53.75;28.42;;;8.30;99.90;;;;;;4975000;28;20063;-52
2022/03/30 04:51:17;;;;;;;60.75;28.30;;;8.30;99.90;;;;;;4978176;28;20077;-50
2022/03/30 04:53:44;;;;;;;58.03;29.67;;;8.30;99.90;;;;;;4979342;28;20082;-54
2022/03/30 04:56:11;;;;;;;63.20;29.35;;;8.30;99.90;;;;;;4979180;28;20478;-54
2022/03/30 04:58:37;;;;;;;54.47;27.92;;;8.30;99.90;;;;;;4974144;28;20417;-51
2022/03/30 05:01:04;;;;;;;52.42;27.42;;;8.30;99.90;;;;;;4979958;28;20050;-53
2022/03/30 05:03:31;;;;;;;57.75;27.67;;;8.30;99.90;;;;;;4972853;28;20126;-54
2022/03/30 05:05:59;;;;;;;51.17;26.25;;;8.30;99.90;;;;;;4976935;28;20058;-49
2022/03/30 05:08:29;;;;;;;50.15;27.23;;;8.30;99.90;;;;;;4972751;28;20043;-51
2022/03/30 05:10:56;;;;;;;46.08;27.20;;;8.30;99.90;;;;;;4978164;28;20050;-51
2022/03/30 05:13:23;;;;;;;56.67;27.73;;;8.30;99.90;;;;;;4971957;28;20058;-54
2022/03/30 05:15:51;;;;;;;55.63;25.77;;;8.30;99.90;;;;;;4977887;28;20455;-55
2022/03/30 05:18:18;;;;;;;50.38;25.77;;;8.30;99.90;;;;;;4971760;28;20574;-53
2022/03/30 05:20:46;;;;;;;53.35;26.02;;;8.30;99.90;;;;;;4977064;28;20146;-54
2022/03/30 05:23:13;;;;;;;50.15;27.75;;;8.30;99.90;;;;;;4973193;28;20070;-55
2022/03/30 05:25:39;;;;;;;50.72;26.45;;;8.40;99.90;;;;;;4983747;28;20137;-55
2022/03/30 05:28:06;;;;;;;53.15;26.98;;;8.30;99.90;;;;;;4982645;28;20477;-56
2022/03/30 05:30:35;;;;;;;54.65;26.98;;;8.30;99.90;;;;;;4978716;28;20075;-55
2022/03/30 05:33:02;;;;;;;50.28;27.88;;;8.30;99.90;;;;;;4975395;28;20053;-54
2022/03/30 05:35:29;;;;;;;59.90;28.92;;;8.30;99.90;;;;;;4977886;28;20468;-53
2022/03/30 05:37:56;;;;;;;60.22;28.90;;;8.30;99.90;;;;;;4980903;28;20070;-54
2022/03/30 05:40:22;;;;;;;54.75;29.58;;;8.30;99.90;;;;;;4979728;28;20506;-54
2022/03/30 05:42:49;;;;;;;64.93;31.80;;;8.30;99.90;;;;;;4974429;28;20515;-53
2022/03/30 05:45:16;;;;;;;52.63;29.42;;;8.30;99.90;;;;;;4979362;28;20050;-54
2022/03/30 05:47:43;;;;;;;54.42;28.90;;;8.30;99.90;;;;;;4980602;28;20069;-54
2022/03/30 05:50:10;;;;;;;59.38;30.55;;;8.30;99.90;;;;;;4974164;28;20082;-53
2022/03/30 05:52:37;;;;;;;53.92;29.65;;;8.30;99.90;;;;;;4981385;28;20141;-54
2022/03/30 05:55:04;;;;;;;56.63;28.20;;;8.30;99.90;;;;;;4983363;28;20134;-53
2022/03/30 05:57:31;;;;;;;62.55;31.70;;;8.30;99.90;;;;;;4978203;28;20097;-56
2022/03/30 05:59:58;;;;;;;53.47;27.60;;;8.30;99.90;;;;;;4979758;28;20085;-55
2022/03/30 06:02:25;;;;;;;53.45;25.63;;;8.30;99.90;;;;;;4977326;28;20074;-52
2022/03/30 06:04:53;;;;;;;56.42;29.85;;;8.40;99.90;;;;;;4972687;28;20296;-56
2022/03/30 06:07:20;;;;;;;64.30;30.25;;;8.30;99.90;;;;;;4978286;28;20050;-54
2022/03/30 06:09:47;;;;;;;59.05;28.95;;;8.30;99.90;;;;;;4976085;28;20054;-55
2022/03/30 06:12:15;;;;;;;55.33;27.67;;;8.30;99.90;;;;;;4977497;28;20050;-58
2022/03/30 06:14:42;;;;;;;54.53;29.85;;;8.30;99.90;;;;;;4981089;28;20058;-56
2022/03/30 06:17:09;;;;;;;58.20;28.60;;;8.30;99.90;;;;;;4979287;28;20557;-54
2022/03/30 06:19:36;;;;;;;56.70;28.77;;;8.30;99.90;;;;;;4974596;28;20130;-56
2022/03/30 06:22:08;;;;;;;66.32;28.92;;;8.30;99.90;;;;;;4976410;28;20582;-56
2022/03/30 06:24:36;;;;;;;61.63;30.38;;;8.20;99.90;;;;;;4966842;28;20050;-54
2022/03/30 06:27:04;;;;;;;58.03;29.92;;;8.20;99.90;;;;;;4978692;28;20122;-55
2022/03/30 06:29:34;;;;;;;60.30;29.45;;;8.30;99.90;;;;;;4977102;28;20406;-54
2022/03/30 06:32:01;;;;;;;58.10;29.73;;;8.30;99.90;;;;;;4979179;28;20093;-55
2022/03/30 06:34:29;;;;;;;58.58;28.38;;;8.30;99.90;;;;;;4982226;28;20078;-56
2022/03/30 06:36:56;;;;;;;60.25;29.25;;;8.30;99.90;;;;;;4966003;28;20074;-60
2022/03/30 06:39:23;;;;;;;64.03;29.70;;;8.30;99.90;;;;;;4634944;28;10000028;-57
2022/03/30 06:41:50;;;;;;;58.42;29.52;;;8.30;99.90;;;;;;4975174;28;20477;-56
2022/03/30 06:44:17;;;;;;;63.28;28.52;;;8.30;99.90;;;;;;4977703;28;20173;-58
2022/03/30 06:46:44;;;;;;;52.53;28.58;;;8.30;99.90;;;;;;4977682;28;20063;-55
2022/03/30 06:49:11;;;;;;;55.15;28.77;;;8.40;99.90;;;;;;4957362;28;20047;-57
2022/03/30 06:51:37;;;;;;;57.50;28.23;;;8.40;99.90;;;;;;4974862;28;20537;-55
2022/03/30 06:54:05;;;;;;;56.45;29.95;;;8.40;99.90;;;;;;4976083;28;20153;-60
2022/03/30 06:56:32;;;;;;;58.10;30.65;;;8.40;99.90;;;;;;4977209;28;20143;-57
2022/03/30 06:58:58;;;;;;;58.05;27.70;;;8.40;99.90;;;;;;4960921;28;20127;-58
2022/03/30 07:01:32;;;;;;;53.92;29.15;;;8.40;99.90;;;;;;4979234;28;20058;-51
2022/03/30 07:03:59;;;;;;;57.10;28.48;;;8.30;99.90;;;;;;4961523;28;20555;-57
2022/03/30 07:06:26;;;;;;;58.10;30.73;;;8.30;99.90;;;;;;4976569;28;20054;-58
2022/03/30 07:11:38;;;;;;;59.90;30.20;;;8.30;99.90;;;;;;4976571;28;20053;-59
2022/03/30 07:14:05;;;;;;;60.35;29.75;;;8.20;99.90;;;;;;4972839;28;20149;-57
2022/03/30 07:16:32;;;;;;;67.28;30.73;;;8.20;99.90;;;;;;4971756;28;20101;-54
2022/03/30 07:18:59;;;;;;;59.22;27.63;;;8.20;99.90;;;;;;4956110;28;20408;-58
2022/03/30 07:21:25;;;;;;;60.15;28.58;;;8.20;99.90;;;;;;4975570;28;20493;-57
2022/03/30 07:23:52;;;;;;;52.83;29.10;;;8.20;99.90;;;;;;4963108;28;20057;-58
2022/03/30 07:26:20;;;;;;;59.42;29.60;;;8.20;99.90;;;;;;4971802;28;21581;-57
2022/03/30 07:28:49;;;;;;;60.97;29.20;;;8.30;99.90;;;;;;4971669;28;20046;-57
2022/03/30 07:31:16;;;;;;;53.15;28.05;;;8.30;99.90;;;;;;4980409;28;20054;-55
2022/03/30 07:33:43;;;;;;;57.58;28.27;;;8.30;99.90;;;;;;4977967;28;20134;-59
2022/03/30 07:36:10;;;;;;;62.63;29.77;;;8.30;99.90;;;;;;4973964;28;20478;-58
2022/03/30 07:38:37;;;;;;;57.63;31.55;;;8.30;99.90;;;;;;4973614;28;20125;-58
2022/03/30 07:41:05;;;;;;;72.63;30.20;;;8.30;99.90;;;;;;4973799;28;20082;-59
2022/03/30 07:43:31;;;;;;;65.68;32.35;;;8.30;99.90;;;;;;4976263;28;20569;-58
2022/03/30 07:45:58;;;;;;;63.28;31.02;;;8.30;99.90;;;;;;4973018;28;20054;-55
2022/03/30 07:48:25;;;;;;;57.78;30.42;;;8.40;99.90;;;;;;4973573;28;20047;-55
2022/03/30 07:50:53;;;;;;;63.92;30.02;;;8.30;99.90;;;;;;4957533;28;20132;-57
2022/03/30 07:53:25;;;;;;;69.10;30.15;;;8.30;99.90;;;;;;4976164;28;20094;-57
2022/03/30 07:55:51;;;;;;;73.55;29.98;;;8.30;99.90;;;;;;4973502;28;20089;-55
2022/03/30 07:58:18;;;;;;;59.50;30.50;;;8.30;99.90;;;;;;4972076;28;20113;-57
2022/03/30 08:00:45;;;;;;;62.95;29.17;;;8.40;99.90;;;;;;4962193;28;20054;-60
2022/03/30 08:03:12;;;;;;;60.72;28.75;;;8.40;99.90;;;;;;4974235;28;20051;-59
2022/03/30 08:05:40;;;;;;;58.22;28.63;;;8.40;99.90;;;;;;4961624;28;20133;-58
2022/03/30 08:08:07;;;;;;;58.63;28.77;;;8.40;99.90;;;;;;4974643;28;20105;-58
2022/03/30 08:10:35;;;;;;;63.97;29.30;;;8.40;99.90;;;;;;4983034;28;20060;-61
2022/03/30 08:13:02;;;;;;;66.25;28.35;;;8.40;99.90;;;;;;4971611;28;20137;-56
2022/03/30 08:15:30;;;;;;;69.30;28.30;;;8.40;99.90;;;;;;4975149;28;20066;-59
2022/03/30 08:17:57;;;;;;;70.15;31.00;;;8.40;99.90;;;;;;4972116;28;20316;-57
2022/03/30 08:23:11;;;;;;;65.43;27.80;;;8.40;99.90;;;;;;4976451;28;20129;-59
2022/03/30 08:25:39;;;;;;;64.43;31.10;;;8.40;99.90;;;;;;4978809;28;20078;-57
2022/03/30 08:28:06;;;;;;;65.65;29.95;;;8.30;99.90;;;;;;4976351;28;20038;-58
2022/03/30 08:30:33;;;;;;;59.72;27.55;;;8.40;99.90;;;;;;4975992;28;20137;-58
2022/03/30 08:33:01;;;;;;;73.57;29.10;;;8.40;99.90;;;;;;4975134;28;20049;-57
2022/03/30 08:35:31;;;;;;;62.20;27.52;;;8.40;99.90;;;;;;4961888;28;20051;-57
2022/03/30 08:37:58;;;;;;;68.25;28.40;;;8.50;99.90;;;;;;4978101;28;20089;-57
2022/03/30 08:40:24;;;;;;;70.38;28.67;;;8.60;99.90;;;;;;4981987;28;20169;-59
2022/03/30 08:42:53;;;;;;;80.03;30.83;;;8.70;99.90;;;;;;4975384;28;20180;-56
2022/03/30 08:45:20;;;;;;;75.57;32.30;;;8.70;99.90;;;;;;4969764;28;20085;-59
2022/03/30 08:47:46;;;;;;;66.72;33.78;;;8.80;99.90;;;;;;4982167;28;20289;-58
2022/03/30 08:50:13;;;;;;;60.90;30.00;;;8.90;99.90;;;;;;4968346;28;20295;-59
2022/03/30 08:52:41;;;;;;;74.05;34.58;;;8.90;99.90;;;;;;4977314;28;20050;-56
2022/03/30 08:55:08;;;;;;;74.25;32.35;;;8.90;99.90;;;;;;4967187;28;20055;-57
2022/03/30 08:57:35;;;;;;;67.68;30.90;;;8.90;99.90;;;;;;4978921;28;20092;-58
2022/03/30 09:00:13;;;;;;;62.42;32.45;;;9.00;99.90;;;;;;4976254;28;20078;-56
2022/03/30 09:02:50;;;;;;;69.10;31.20;;;9.00;99.90;;;;;;4979685;28;20050;-57
2022/03/30 09:05:19;;;;;;;69.85;32.17;;;9.10;99.90;;;;;;4959718;28;20046;-58
2022/03/30 09:07:51;;;;;;;59.35;32.25;;;9.20;99.90;;;;;;4979325;28;20062;-57
2022/03/30 09:10:20;;;;;;;69.25;33.58;;;9.20;99.90;;;;;;4979175;28;20094;-56
2022/03/30 09:12:48;;;;;;;76.75;31.73;;;9.30;99.90;;;;;;4976459;28;20061;-57
2022/03/30 09:15:15;;;;;;;68.93;31.05;;;9.40;99.90;;;;;;4976306;28;20058;-57
2022/03/30 09:18:02;;;;;;;67.57;32.05;;;9.50;99.90;;;;;;4982904;28;20469;-55
2022/03/30 09:20:38;;;;;;;72.55;32.13;;;9.60;99.90;;;;;;4975206;28;20078;-58
2022/03/30 09:23:06;;;;;;;75.32;33.55;;;9.70;99.90;;;;;;4977186;28;20081;-57
2022/03/30 09:25:47;;;;;;;56.60;30.95;;;9.60;99.90;;;;;;4972538;28;20058;-57
2022/03/30 09:28:16;;;;;;;59.42;29.08;;;9.70;99.90;;;;;;4976958;28;20497;-58
2022/03/30 09:30:43;;;;;;;59.90;29.48;;;9.70;99.90;;;;;;4963821;28;20050;-58
2022/03/30 09:33:11;;;;;;;69.22;29.13;;;9.70;99.90;;;;;;4977056;28;20205;-57
2022/03/30 09:35:39;;;;;;;64.28;29.20;;;9.60;99.90;;;;;;4980574;28;20077;-58
2022/03/30 09:38:17;;;;;;;63.05;30.95;;;9.60;99.90;;;;;;4974485;28;20054;-58
2022/03/30 09:40:51;;;;;;;60.03;29.33;;;9.60;99.90;;;;;;4965513;28;20100;-58
2022/03/30 09:43:24;;;;;;;61.92;29.80;;;9.70;99.90;;;;;;4975059;28;20511;-57
2022/03/30 09:46:12;;;;;;;63.00;30.10;;;9.70;99.90;;;;;;4980648;28;20078;-57
2022/03/30 09:48:44;;;;;;;56.15;30.05;;;9.90;99.90;;;;;;4979157;28;20495;-56
2022/03/30 09:51:10;;;;;;;54.20;28.65;;;10.00;99.90;;;;;;4976747;28;20053;-52
2022/03/30 09:53:38;;;;;;;58.92;28.55;;;10.10;99.90;;;;;;4976244;28;20141;-53
2022/03/30 09:56:08;;;;;;;64.20;30.13;;;10.20;99.90;;;;;;4978327;28;20105;-57
2022/03/30 09:58:36;;;;;;;64.18;30.92;;;10.20;99.90;;;;;;4973662;28;20143;-58
2022/03/30 10:01:09;;;;;;;63.42;30.65;;;10.30;99.90;;;;;;4964843;28;20058;-59
2022/03/30 10:03:51;;;;;;;56.40;29.83;;;10.40;99.90;;;;;;4980606;28;20043;-56
2022/03/30 10:06:24;;;;;;;60.90;28.52;;;10.50;99.90;;;;;;4965526;28;20093;-58
2022/03/30 10:08:51;;;;;;;55.25;30.50;;;10.50;99.90;;;;;;4984884;28;20133;-56
2022/03/30 10:11:18;;;;;;;68.75;31.70;;;10.60;99.90;;;;;;4980642;28;20616;-58
2022/03/30 10:13:46;;;;;;;65.30;30.90;;;10.60;99.90;;;;;;4976762;28;20117;-58
2022/03/30 10:16:33;;;;;;;60.88;29.00;;;10.60;99.90;;;;;;4985666;28;20049;-57
2022/03/30 10:19:01;;;;;;;66.35;28.30;;;10.80;99.90;;;;;;4982123;28;20496;-58
2022/03/30 10:21:40;;;;;;;51.92;28.95;;;10.90;99.90;;;;;;4982586;28;20085;-58
2022/03/30 10:24:30;;;;;;;48.70;27.63;;;10.90;99.90;;;;;;4970439;28;20062;-62
2022/03/30 10:27:20;;;;;;;58.80;30.50;;;11.00;99.90;;;;;;4977686;28;20073;-59
2022/03/30 10:29:55;;;;;;;61.38;30.15;;;11.20;99.90;;;;;;4978649;28;20066;-58
2022/03/30 10:32:23;;;;;;;64.35;30.88;;;11.20;99.90;;;;;;4962262;28;20077;-55
2022/03/30 10:35:10;;;;;;;57.78;27.75;;;11.30;99.90;;;;;;4978101;28;20046;-58
2022/03/30 10:37:39;;;;;;;53.22;28.48;;;11.40;99.90;;;;;;4982721;28;20078;-58
2022/03/30 10:40:09;;;;;;;58.35;31.15;;;11.40;99.90;;;;;;4980417;28;20046;-58
2022/03/30 10:42:53;;;;;;;49.22;29.30;;;11.50;99.90;;;;;;4985264;28;20096;-58
2022/03/30 10:45:30;;;;;;;70.22;31.23;;;11.50;99.90;;;;;;4980162;28;20046;-58
2022/03/30 10:48:13;;;;;;;56.38;29.83;;;11.50;99.90;;;;;;4980837;28;20053;-57
2022/03/30 10:50:55;;;;;;;58.72;28.10;;;11.60;99.90;;;;;;4981862;28;20050;-57
2022/03/30 10:53:34;;;;;;;68.03;33.92;;;11.70;99.90;;;;;;4623020;28;10000227;-55
2022/03/30 10:56:07;;;;;;;56.75;30.20;;;11.70;99.90;;;;;;4977578;28;20555;-60
2022/03/30 10:58:50;;;;;;;54.93;29.50;;;11.70;99.90;;;;;;4973704;28;20105;-56
2022/03/30 11:01:24;;;;;;;60.70;29.92;;;11.70;99.90;;;;;;4981750;28;20457;-58
2022/03/30 11:04:18;;;;;;;51.88;31.10;;;11.80;99.90;;;;;;4979049;28;20505;-58
2022/03/30 11:06:54;;;;;;;60.60;31.02;;;11.80;99.90;;;;;;4980187;28;20054;-58
2022/03/30 11:09:23;;;;;;;65.47;33.40;;;11.90;99.90;;;;;;4980785;28;20050;-59
2022/03/30 11:12:02;;;;;;;57.40;31.98;;;12.00;99.90;;;;;;4962391;28;20051;-58
2022/03/30 11:14:46;;;;;;;58.53;30.63;;;12.10;99.90;;;;;;4975841;28;20069;-58
2022/03/30 11:17:14;;;;;;;55.50;32.60;;;12.10;99.90;;;;;;4980114;28;20042;-57
2022/03/30 11:19:47;;;;;;;64.80;31.27;;;12.10;99.90;;;;;;4962006;28;20138;-57
2022/03/30 11:22:15;;;;;;;65.45;34.92;;;12.10;99.90;;;;;;4981855;28;20121;-57
2022/03/30 11:24:43;;;;;;;60.47;30.80;;;12.20;99.90;;;;;;4987133;28;20138;-57
2022/03/30 11:27:09;;;;;;;60.63;31.77;;;12.20;99.90;;;;;;4962263;28;20050;-58
2022/03/30 11:29:48;;;;;;;54.70;29.70;;;12.30;99.90;;;;;;4978484;28;20141;-58
2022/03/30 11:32:32;;;;;;;63.20;31.27;;;12.30;99.90;;;;;;4963589;28;20050;-60
2022/03/30 11:35:00;;;;;;;66.80;31.13;;;12.10;99.90;;;;;;4978540;28;20086;-57
2022/03/30 11:37:28;;;;;;;63.42;31.48;;;12.10;99.90;;;;;;4980547;28;20487;-57
2022/03/30 11:40:16;;;;;;;64.15;32.72;;;12.00;99.90;;;;;;4985416;28;20133;-56
2022/03/30 11:42:50;;;;;;;50.67;28.30;;;12.00;99.90;;;;;;4980840;28;20108;-58
2022/03/30 11:45:21;;;;;;;52.75;29.17;;;11.90;99.90;;;;;;4980545;28;20480;-58
2022/03/30 11:48:01;;;;;;;53.78;29.77;;;11.90;99.90;;;;;;4981348;28;20042;-59
2022/03/30 11:50:41;;;;;;;;;;;11.90;99.90;;;;;;4967221;28;20513;-58
2022/03/30 11:53:11;;;;;;;56.22;29.10;;;11.90;99.90;;;;;;4981154;28;19976;-58
2022/03/30 11:55:53;;;;;;;55.83;29.42;;;11.90;99.90;;;;;;4980673;28;20495;-58
2022/03/30 11:58:28;;;;;;;56.65;28.48;;;11.80;99.90;;;;;;4980968;28;20499;-58
2022/03/30 12:00:57;;;;;;;51.47;27.83;;;11.80;99.90;;;;;;4978476;28;20042;-62
2022/03/30 12:03:24;;;;;;;54.55;29.23;;;11.80;99.90;;;;;;4966748;28;20062;-59
2022/03/30 12:05:59;;;;;;;49.75;29.42;;;12.00;99.90;;;;;;4976984;28;20046;-58
2022/03/30 12:08:26;;;;;;;53.45;26.63;;;12.20;99.90;;;;;;4979437;28;20520;-56
2022/03/30 12:11:00;;;;;;;50.83;28.73;;;12.30;99.90;;;;;;4978496;28;20100;-58
2022/03/30 12:13:27;;;;;;;50.15;28.55;;;12.40;99.90;;;;;;4975811;28;20501;-57
2022/03/30 12:16:13;;;;;;;53.00;26.52;;;12.40;99.90;;;;;;4977391;28;20082;-57
2022/03/30 12:18:48;;;;;;;50.30;25.48;;;12.40;98.00;;;;;;4981743;28;20076;-57
2022/03/30 12:21:19;;;;;;;49.65;28.45;;;12.50;99.90;;;;;;4973693;28;20046;-55
2022/03/30 12:24:06;;;;;;;50.95;29.23;;;12.60;99.90;;;;;;4963219;28;20101;-58
2022/03/30 12:26:44;;;;;;;44.42;25.92;;;12.60;99.90;;;;;;4990648;28;20077;-59
2022/03/30 12:29:17;;;;;;;49.85;26.67;;;12.80;99.90;;;;;;4980224;28;20105;-55
2022/03/30 12:31:56;;;;;;;46.03;26.70;;;12.60;99.90;;;;;;4978307;28;20079;-55
2022/03/30 12:34:24;;;;;;;54.30;31.58;;;12.60;99.90;;;;;;4967614;28;20074;-57
2022/03/30 12:36:53;;;;;;;61.47;30.13;;;12.50;99.90;;;;;;4972757;28;20089;-57
2022/03/30 12:39:27;;;;;;;57.75;32.90;;;12.20;99.90;;;;;;4978208;28;20050;-56
2022/03/30 12:42:04;;;;;;;65.63;32.67;;;11.90;99.90;;;;;;4972633;28;20082;-58
2022/03/30 12:44:36;;;;;;;53.20;30.15;;;11.90;99.90;;;;;;4979183;28;20046;-58
2022/03/30 12:47:03;;;;;;;57.95;30.58;;;12.10;99.90;;;;;;4973113;28;20081;-58
2022/03/30 12:49:42;;;;;;;55.80;29.58;;;12.20;99.90;;;;;;4977073;28;20101;-56
2022/03/30 12:52:10;;;;;;;55.60;30.65;;;12.30;99.90;;;;;;4982742;28;20043;-58
2022/03/30 12:54:37;;;;;;;62.50;28.73;;;12.40;99.90;;;;;;4977761;28;20051;-56